sensor_id;sensor_type;location;lat;lon;timestamp;temperature;humidity
38464;DHT22;24243;51.956;5.902;2023-05-10T00:00:26;23.10;56.40
38464;DHT22;24243;51.956;5.902;2023-05-10T00:02:52;23.10;56.40
38464;DHT22;24243;51.956;5.902;2023-05-10T00:05:18;23.10;56.40
38464;DHT22;24243;51.956;5.902;2023-05-10T00:07:44;23.10;56.40
38464;DHT22;24243;51.956;5.902;2023-05-10T00:10:11;23.10;56.40
38464;DHT22;24243;51.956;5.902;2023-05-10T00:12:37;23.10;56.40
38464;DHT22;24243;51.956;5.902;2023-05-10T00:15:02;23.10;56.40
38464;DHT22;24243;51.956;5.902;2023-05-10T00:17:28;23.00;56.30
38464;DHT22;24243;51.956;5.902;2023-05-10T00:19:54;23.10;56.40
38464;DHT22;24243;51.956;5.902;2023-05-10T00:22:20;23.00;56.30
38464;DHT22;24243;51.956;5.902;2023-05-10T00:24:46;23.00;56.30
38464;DHT22;24243;51.956;5.902;2023-05-10T00:27:12;23.00;56.30
38464;DHT22;24243;51.956;5.902;2023-05-10T00:29:37;23.00;56.30
38464;DHT22;24243;51.956;5.902;2023-05-10T00:32:03;23.00;56.30
38464;DHT22;24243;51.956;5.902;2023-05-10T00:34:29;23.00;56.30
38464;DHT22;24243;51.956;5.902;2023-05-10T00:36:55;23.00;56.30
38464;DHT22;24243;51.956;5.902;2023-05-10T00:39:21;23.00;56.30
38464;DHT22;24243;51.956;5.902;2023-05-10T00:41:47;23.00;56.30
38464;DHT22;24243;51.956;5.902;2023-05-10T00:44:13;23.00;56.30
38464;DHT22;24243;51.956;5.902;2023-05-10T00:46:39;23.00;56.30
38464;DHT22;24243;51.956;5.902;2023-05-10T00:49:04;23.00;56.30
38464;DHT22;24243;51.956;5.902;2023-05-10T00:51:30;23.00;56.30
38464;DHT22;24243;51.956;5.902;2023-05-10T00:53:57;23.00;56.30
38464;DHT22;24243;51.956;5.902;2023-05-10T00:56:24;23.00;56.30
38464;DHT22;24243;51.956;5.902;2023-05-10T00:58:50;23.00;56.30
38464;DHT22;24243;51.956;5.902;2023-05-10T01:01:16;23.00;56.30
38464;DHT22;24243;51.956;5.902;2023-05-10T01:03:43;23.00;56.30
38464;DHT22;24243;51.956;5.902;2023-05-10T01:06:09;23.00;56.30
38464;DHT22;24243;51.956;5.902;2023-05-10T01:08:36;23.00;56.20
38464;DHT22;24243;51.956;5.902;2023-05-10T01:11:01;23.00;56.20
38464;DHT22;24243;51.956;5.902;2023-05-10T01:15:57;23.00;56.20
38464;DHT22;24243;51.956;5.902;2023-05-10T01:18:24;23.00;56.20
38464;DHT22;24243;51.956;5.902;2023-05-10T01:21:48;23.00;56.30
38464;DHT22;24243;51.956;5.902;2023-05-10T01:26:25;23.00;56.30
38464;DHT22;24243;51.956;5.902;2023-05-10T01:29:55;22.90;56.20
38464;DHT22;24243;51.956;5.902;2023-05-10T01:35:02;23.00;56.20
38464;DHT22;24243;51.956;5.902;2023-05-10T01:37:52;22.90;56.20
38464;DHT22;24243;51.956;5.902;2023-05-10T01:40:35;22.90;56.20
38464;DHT22;24243;51.956;5.902;2023-05-10T01:43:04;22.90;56.20
38464;DHT22;24243;51.956;5.902;2023-05-10T01:48:41;22.90;56.20
38464;DHT22;24243;51.956;5.902;2023-05-10T01:51:19;22.90;56.20
38464;DHT22;24243;51.956;5.902;2023-05-10T01:53:48;22.90;56.20
38464;DHT22;24243;51.956;5.902;2023-05-10T01:56:15;22.90;56.20
38464;DHT22;24243;51.956;5.902;2023-05-10T01:58:43;22.90;56.20
38464;DHT22;24243;51.956;5.902;2023-05-10T02:01:12;22.90;56.20
38464;DHT22;24243;51.956;5.902;2023-05-10T02:03:40;22.90;56.20
38464;DHT22;24243;51.956;5.902;2023-05-10T02:06:06;22.90;56.20
38464;DHT22;24243;51.956;5.902;2023-05-10T02:08:35;22.90;56.20
38464;DHT22;24243;51.956;5.902;2023-05-10T02:11:02;22.90;56.20
38464;DHT22;24243;51.956;5.902;2023-05-10T02:13:29;22.90;56.20
38464;DHT22;24243;51.956;5.902;2023-05-10T02:15:57;22.90;56.20
38464;DHT22;24243;51.956;5.902;2023-05-10T02:18:25;22.90;56.10
38464;DHT22;24243;51.956;5.902;2023-05-10T02:20:53;22.90;56.10
38464;DHT22;24243;51.956;5.902;2023-05-10T02:23:20;22.90;56.10
38464;DHT22;24243;51.956;5.902;2023-05-10T02:25:48;22.90;56.10
38464;DHT22;24243;51.956;5.902;2023-05-10T02:28:15;22.90;56.10
38464;DHT22;24243;51.956;5.902;2023-05-10T02:30:41;22.90;56.10
38464;DHT22;24243;51.956;5.902;2023-05-10T02:33:08;22.90;56.10
38464;DHT22;24243;51.956;5.902;2023-05-10T02:35:35;22.80;56.10
38464;DHT22;24243;51.956;5.902;2023-05-10T02:38:01;22.90;56.20
38464;DHT22;24243;51.956;5.902;2023-05-10T02:40:28;22.90;56.20
38464;DHT22;24243;51.956;5.902;2023-05-10T02:42:56;22.80;56.10
38464;DHT22;24243;51.956;5.902;2023-05-10T02:45:25;22.80;56.10
38464;DHT22;24243;51.956;5.902;2023-05-10T02:47:53;22.80;56.10
38464;DHT22;24243;51.956;5.902;2023-05-10T02:50:20;22.80;56.10
38464;DHT22;24243;51.956;5.902;2023-05-10T02:52:50;22.80;56.10
38464;DHT22;24243;51.956;5.902;2023-05-10T02:55:22;22.80;56.10
38464;DHT22;24243;51.956;5.902;2023-05-10T02:58:00;22.80;56.10
38464;DHT22;24243;51.956;5.902;2023-05-10T03:00:26;22.80;56.10
38464;DHT22;24243;51.956;5.902;2023-05-10T03:02:52;22.80;56.10
38464;DHT22;24243;51.956;5.902;2023-05-10T03:05:18;22.80;56.10
38464;DHT22;24243;51.956;5.902;2023-05-10T03:07:45;22.80;56.10
38464;DHT22;24243;51.956;5.902;2023-05-10T03:10:11;22.80;56.10
38464;DHT22;24243;51.956;5.902;2023-05-10T03:15:24;22.80;56.10
38464;DHT22;24243;51.956;5.902;2023-05-10T03:17:57;22.80;56.00
38464;DHT22;24243;51.956;5.902;2023-05-10T03:20:35;22.80;56.10
38464;DHT22;24243;51.956;5.902;2023-05-10T03:25:49;22.80;56.00
38464;DHT22;24243;51.956;5.902;2023-05-10T03:28:17;22.80;56.10
38464;DHT22;24243;51.956;5.902;2023-05-10T03:30:43;22.80;56.10
38464;DHT22;24243;51.956;5.902;2023-05-10T03:33:10;22.80;56.00
38464;DHT22;24243;51.956;5.902;2023-05-10T03:35:36;22.80;56.00
38464;DHT22;24243;51.956;5.902;2023-05-10T03:38:02;22.80;56.00
38464;DHT22;24243;51.956;5.902;2023-05-10T03:40:28;22.80;56.10
38464;DHT22;24243;51.956;5.902;2023-05-10T03:43:00;22.80;56.00
38464;DHT22;24243;51.956;5.902;2023-05-10T03:45:26;22.80;56.00
38464;DHT22;24243;51.956;5.902;2023-05-10T03:47:51;22.80;56.10
38464;DHT22;24243;51.956;5.902;2023-05-10T03:50:17;22.70;56.00
38464;DHT22;24243;51.956;5.902;2023-05-10T03:52:44;22.70;56.00
38464;DHT22;24243;51.956;5.902;2023-05-10T03:55:10;22.70;56.00
38464;DHT22;24243;51.956;5.902;2023-05-10T03:57:36;22.80;56.10
38464;DHT22;24243;51.956;5.902;2023-05-10T04:00:02;22.70;56.00
38464;DHT22;24243;51.956;5.902;2023-05-10T04:02:28;22.70;56.00
38464;DHT22;24243;51.956;5.902;2023-05-10T04:04:55;22.70;56.60
38464;DHT22;24243;51.956;5.902;2023-05-10T04:07:21;22.70;56.00
38464;DHT22;24243;51.956;5.902;2023-05-10T04:09:46;22.70;56.00
38464;DHT22;24243;51.956;5.902;2023-05-10T04:12:12;22.70;56.00
38464;DHT22;24243;51.956;5.902;2023-05-10T04:14:38;22.70;56.00
38464;DHT22;24243;51.956;5.902;2023-05-10T04:17:04;22.70;56.00
38464;DHT22;24243;51.956;5.902;2023-05-10T04:19:31;22.70;56.00
38464;DHT22;24243;51.956;5.902;2023-05-10T04:21:57;22.70;56.00
38464;DHT22;24243;51.956;5.902;2023-05-10T04:24:23;22.80;56.00
38464;DHT22;24243;51.956;5.902;2023-05-10T04:26:49;22.80;56.10
38464;DHT22;24243;51.956;5.902;2023-05-10T04:29:14;22.80;56.10
38464;DHT22;24243;51.956;5.902;2023-05-10T04:31:40;22.80;56.20
38464;DHT22;24243;51.956;5.902;2023-05-10T04:34:06;22.80;56.20
38464;DHT22;24243;51.956;5.902;2023-05-10T04:36:32;22.80;56.20
38464;DHT22;24243;51.956;5.902;2023-05-10T04:39:02;22.80;56.20
38464;DHT22;24243;51.956;5.902;2023-05-10T04:41:28;22.80;56.20
38464;DHT22;24243;51.956;5.902;2023-05-10T04:43:54;22.80;56.20
38464;DHT22;24243;51.956;5.902;2023-05-10T04:46:20;22.80;56.20
38464;DHT22;24243;51.956;5.902;2023-05-10T04:48:45;22.80;56.20
38464;DHT22;24243;51.956;5.902;2023-05-10T04:51:11;22.80;56.20
38464;DHT22;24243;51.956;5.902;2023-05-10T04:53:37;22.80;56.20
38464;DHT22;24243;51.956;5.902;2023-05-10T04:56:03;22.80;56.20
38464;DHT22;24243;51.956;5.902;2023-05-10T04:58:29;22.80;56.20
38464;DHT22;24243;51.956;5.902;2023-05-10T05:00:55;22.70;56.20
38464;DHT22;24243;51.956;5.902;2023-05-10T05:03:21;22.70;56.80
38464;DHT22;24243;51.956;5.902;2023-05-10T05:05:47;22.70;56.20
38464;DHT22;24243;51.956;5.902;2023-05-10T05:08:13;22.70;56.20
38464;DHT22;24243;51.956;5.902;2023-05-10T05:10:39;22.70;56.20
38464;DHT22;24243;51.956;5.902;2023-05-10T05:13:04;22.70;56.20
38464;DHT22;24243;51.956;5.902;2023-05-10T05:15:30;22.70;56.20
38464;DHT22;24243;51.956;5.902;2023-05-10T05:17:57;22.70;56.20
38464;DHT22;24243;51.956;5.902;2023-05-10T05:20:22;22.70;56.20
38464;DHT22;24243;51.956;5.902;2023-05-10T05:22:48;22.70;56.20
38464;DHT22;24243;51.956;5.902;2023-05-10T05:25:14;22.70;56.10
38464;DHT22;24243;51.956;5.902;2023-05-10T05:27:41;22.70;56.10
38464;DHT22;24243;51.956;5.902;2023-05-10T05:30:25;22.70;56.10
38464;DHT22;24243;51.956;5.902;2023-05-10T05:32:51;22.70;56.20
38464;DHT22;24243;51.956;5.902;2023-05-10T05:35:17;22.70;56.10
38464;DHT22;24243;51.956;5.902;2023-05-10T05:37:43;22.70;56.10
38464;DHT22;24243;51.956;5.902;2023-05-10T05:40:12;22.70;56.20
38464;DHT22;24243;51.956;5.902;2023-05-10T05:42:41;22.60;56.20
38464;DHT22;24243;51.956;5.902;2023-05-10T05:45:07;22.70;56.30
38464;DHT22;24243;51.956;5.902;2023-05-10T05:47:52;22.60;56.30
38464;DHT22;24243;51.956;5.902;2023-05-10T05:50:18;22.60;56.20
38464;DHT22;24243;51.956;5.902;2023-05-10T05:52:44;22.70;56.20
38464;DHT22;24243;51.956;5.902;2023-05-10T05:55:10;22.70;56.20
38464;DHT22;24243;51.956;5.902;2023-05-10T05:57:35;22.70;56.30
38464;DHT22;24243;51.956;5.902;2023-05-10T06:00:01;22.70;56.30
38464;DHT22;24243;51.956;5.902;2023-05-10T06:02:28;22.70;56.30
38464;DHT22;24243;51.956;5.902;2023-05-10T06:04:54;22.70;56.30
38464;DHT22;24243;51.956;5.902;2023-05-10T06:07:19;22.70;56.30
38464;DHT22;24243;51.956;5.902;2023-05-10T06:09:45;22.70;56.30
38464;DHT22;24243;51.956;5.902;2023-05-10T06:12:11;22.70;56.30
38464;DHT22;24243;51.956;5.902;2023-05-10T06:14:37;22.70;56.30
38464;DHT22;24243;51.956;5.902;2023-05-10T06:17:03;22.70;56.30
38464;DHT22;24243;51.956;5.902;2023-05-10T06:19:30;22.70;56.30
38464;DHT22;24243;51.956;5.902;2023-05-10T06:21:56;22.70;56.30
38464;DHT22;24243;51.956;5.902;2023-05-10T06:24:21;22.70;56.30
38464;DHT22;24243;51.956;5.902;2023-05-10T06:26:47;22.60;56.20
38464;DHT22;24243;51.956;5.902;2023-05-10T06:29:15;22.60;56.20
38464;DHT22;24243;51.956;5.902;2023-05-10T06:31:40;22.70;56.30
38464;DHT22;24243;51.956;5.902;2023-05-10T06:34:06;22.60;56.20
38464;DHT22;24243;51.956;5.902;2023-05-10T06:36:33;22.60;56.20
38464;DHT22;24243;51.956;5.902;2023-05-10T06:38:59;22.70;56.20
38464;DHT22;24243;51.956;5.902;2023-05-10T06:41:25;22.70;56.20
38464;DHT22;24243;51.956;5.902;2023-05-10T06:43:50;22.60;56.10
38464;DHT22;24243;51.956;5.902;2023-05-10T06:46:16;22.60;56.10
38464;DHT22;24243;51.956;5.902;2023-05-10T06:48:42;22.60;56.10
38464;DHT22;24243;51.956;5.902;2023-05-10T06:51:07;22.60;56.10
38464;DHT22;24243;51.956;5.902;2023-05-10T06:53:33;22.60;56.10
38464;DHT22;24243;51.956;5.902;2023-05-10T06:55:59;22.60;56.10
38464;DHT22;24243;51.956;5.902;2023-05-10T06:58:24;22.60;56.10
38464;DHT22;24243;51.956;5.902;2023-05-10T07:00:50;22.60;56.10
38464;DHT22;24243;51.956;5.902;2023-05-10T07:03:16;22.60;56.70
38464;DHT22;24243;51.956;5.902;2023-05-10T07:05:41;22.60;56.10
38464;DHT22;24243;51.956;5.902;2023-05-10T07:08:07;22.60;56.10
38464;DHT22;24243;51.956;5.902;2023-05-10T07:10:34;22.60;56.10
38464;DHT22;24243;51.956;5.902;2023-05-10T07:12:59;22.60;56.10
38464;DHT22;24243;51.956;5.902;2023-05-10T07:15:26;22.60;56.10
38464;DHT22;24243;51.956;5.902;2023-05-10T07:17:52;22.60;56.00
38464;DHT22;24243;51.956;5.902;2023-05-10T07:20:18;22.60;56.10
38464;DHT22;24243;51.956;5.902;2023-05-10T07:22:43;22.60;56.00
38464;DHT22;24243;51.956;5.902;2023-05-10T07:25:09;22.60;56.00
38464;DHT22;24243;51.956;5.902;2023-05-10T07:27:35;22.60;56.00
38464;DHT22;24243;51.956;5.902;2023-05-10T07:30:01;22.60;56.00
38464;DHT22;24243;51.956;5.902;2023-05-10T07:32:26;22.60;56.00
38464;DHT22;24243;51.956;5.902;2023-05-10T07:34:52;22.60;56.00
38464;DHT22;24243;51.956;5.902;2023-05-10T07:37:18;22.60;56.00
38464;DHT22;24243;51.956;5.902;2023-05-10T07:39:44;22.60;56.00
38464;DHT22;24243;51.956;5.902;2023-05-10T07:42:09;22.60;55.90
38464;DHT22;24243;51.956;5.902;2023-05-10T07:44:35;22.60;55.90
38464;DHT22;24243;51.956;5.902;2023-05-10T07:47:01;22.60;55.90
38464;DHT22;24243;51.956;5.902;2023-05-10T07:49:26;22.60;55.90
38464;DHT22;24243;51.956;5.902;2023-05-10T07:51:52;22.60;55.90
38464;DHT22;24243;51.956;5.902;2023-05-10T07:54:18;22.60;55.90
38464;DHT22;24243;51.956;5.902;2023-05-10T07:56:43;22.60;55.90
38464;DHT22;24243;51.956;5.902;2023-05-10T07:59:16;22.60;55.90
38464;DHT22;24243;51.956;5.902;2023-05-10T08:01:43;22.60;55.90
38464;DHT22;24243;51.956;5.902;2023-05-10T08:04:08;22.70;55.90
38464;DHT22;24243;51.956;5.902;2023-05-10T08:06:34;22.70;55.90
38464;DHT22;24243;51.956;5.902;2023-05-10T08:09:00;22.70;55.90
38464;DHT22;24243;51.956;5.902;2023-05-10T08:11:26;22.70;55.80
38464;DHT22;24243;51.956;5.902;2023-05-10T08:14:11;22.70;55.80
38464;DHT22;24243;51.956;5.902;2023-05-10T08:16:37;22.70;55.80
38464;DHT22;24243;51.956;5.902;2023-05-10T08:19:03;22.80;55.80
38464;DHT22;24243;51.956;5.902;2023-05-10T08:21:28;22.80;55.70
38464;DHT22;24243;51.956;5.902;2023-05-10T08:23:54;22.80;55.70
38464;DHT22;24243;51.956;5.902;2023-05-10T08:26:20;22.90;55.70
38464;DHT22;24243;51.956;5.902;2023-05-10T08:28:46;22.90;55.60
38464;DHT22;24243;51.956;5.902;2023-05-10T08:31:12;22.90;55.50
38464;DHT22;24243;51.956;5.902;2023-05-10T08:33:38;22.90;55.50
38464;DHT22;24243;51.956;5.902;2023-05-10T08:36:04;22.90;55.50
38464;DHT22;24243;51.956;5.902;2023-05-10T08:38:29;22.90;55.40
38464;DHT22;24243;51.956;5.902;2023-05-10T08:40:55;22.90;55.50
38464;DHT22;24243;51.956;5.902;2023-05-10T08:43:28;23.00;55.50
38464;DHT22;24243;51.956;5.902;2023-05-10T08:45:55;23.00;55.40
38464;DHT22;24243;51.956;5.902;2023-05-10T08:48:24;23.00;55.40
38464;DHT22;24243;51.956;5.902;2023-05-10T08:50:53;23.00;55.40
38464;DHT22;24243;51.956;5.902;2023-05-10T08:53:20;23.00;55.40
38464;DHT22;24243;51.956;5.902;2023-05-10T08:55:47;23.00;55.30
38464;DHT22;24243;51.956;5.902;2023-05-10T08:58:13;23.00;55.30
38464;DHT22;24243;51.956;5.902;2023-05-10T09:00:40;23.00;55.30
38464;DHT22;24243;51.956;5.902;2023-05-10T09:03:05;23.00;55.30
38464;DHT22;24243;51.956;5.902;2023-05-10T09:05:32;23.00;55.30
38464;DHT22;24243;51.956;5.902;2023-05-10T09:07:58;23.00;55.30
38464;DHT22;24243;51.956;5.902;2023-05-10T09:10:26;23.00;55.20
38464;DHT22;24243;51.956;5.902;2023-05-10T09:12:54;23.00;55.20
38464;DHT22;24243;51.956;5.902;2023-05-10T09:15:21;23.10;55.20
38464;DHT22;24243;51.956;5.902;2023-05-10T09:17:47;23.10;55.20
38464;DHT22;24243;51.956;5.902;2023-05-10T09:20:14;23.20;55.20
38464;DHT22;24243;51.956;5.902;2023-05-10T09:22:40;23.20;55.00
38464;DHT22;24243;51.956;5.902;2023-05-10T09:25:12;23.20;54.70
38464;DHT22;24243;51.956;5.902;2023-05-10T09:27:39;23.20;54.20
38464;DHT22;24243;51.956;5.902;2023-05-10T09:30:06;23.20;53.80
38464;DHT22;24243;51.956;5.902;2023-05-10T09:32:43;23.10;53.50
38464;DHT22;24243;51.956;5.902;2023-05-10T09:37:43;23.10;53.30
38464;DHT22;24243;51.956;5.902;2023-05-10T09:40:16;23.10;53.30
38464;DHT22;24243;51.956;5.902;2023-05-10T09:42:53;23.10;53.30
38464;DHT22;24243;51.956;5.902;2023-05-10T09:45:21;23.20;53.40
38464;DHT22;24243;51.956;5.902;2023-05-10T09:47:47;23.20;53.50
38464;DHT22;24243;51.956;5.902;2023-05-10T09:50:12;23.20;53.50
38464;DHT22;24243;51.956;5.902;2023-05-10T09:52:55;23.20;53.50
38464;DHT22;24243;51.956;5.902;2023-05-10T09:55:43;23.20;53.50
38464;DHT22;24243;51.956;5.902;2023-05-10T09:58:13;23.30;53.60
38464;DHT22;24243;51.956;5.902;2023-05-10T10:00:41;23.30;54.10
38464;DHT22;24243;51.956;5.902;2023-05-10T10:03:13;23.30;53.40
38464;DHT22;24243;51.956;5.902;2023-05-10T10:05:40;23.30;53.30
38464;DHT22;24243;51.956;5.902;2023-05-10T10:08:08;23.30;53.40
38464;DHT22;24243;51.956;5.902;2023-05-10T10:10:34;23.30;53.20
38464;DHT22;24243;51.956;5.902;2023-05-10T10:13:00;23.30;52.80
38464;DHT22;24243;51.956;5.902;2023-05-10T10:15:27;23.30;52.50
38464;DHT22;24243;51.956;5.902;2023-05-10T10:17:53;23.30;52.30
38464;DHT22;24243;51.956;5.902;2023-05-10T10:20:20;23.30;52.20
38464;DHT22;24243;51.956;5.902;2023-05-10T10:22:47;23.30;52.10
38464;DHT22;24243;51.956;5.902;2023-05-10T10:25:15;23.30;52.00
38464;DHT22;24243;51.956;5.902;2023-05-10T10:35:32;23.30;52.20
38464;DHT22;24243;51.956;5.902;2023-05-10T10:38:16;23.30;52.20
38464;DHT22;24243;51.956;5.902;2023-05-10T10:40:42;23.30;52.30
38464;DHT22;24243;51.956;5.902;2023-05-10T10:43:26;23.30;52.30
38464;DHT22;24243;51.956;5.902;2023-05-10T10:46:10;23.30;52.30
38464;DHT22;24243;51.956;5.902;2023-05-10T10:49:09;23.30;52.30
38464;DHT22;24243;51.956;5.902;2023-05-10T10:51:39;23.30;52.40
38464;DHT22;24243;51.956;5.902;2023-05-10T10:54:11;23.30;52.50
38464;DHT22;24243;51.956;5.902;2023-05-10T10:56:37;23.30;52.50
38464;DHT22;24243;51.956;5.902;2023-05-10T10:59:03;23.30;52.50
38464;DHT22;24243;51.956;5.902;2023-05-10T11:01:35;23.30;52.50
38464;DHT22;24243;51.956;5.902;2023-05-10T11:06:30;23.30;52.60
38464;DHT22;24243;51.956;5.902;2023-05-10T11:09:05;23.30;52.60
38464;DHT22;24243;51.956;5.902;2023-05-10T11:11:31;23.30;52.60
38464;DHT22;24243;51.956;5.902;2023-05-10T11:14:03;23.30;52.70
38464;DHT22;24243;51.956;5.902;2023-05-10T11:16:41;23.40;52.70
38464;DHT22;24243;51.956;5.902;2023-05-10T11:19:13;23.40;52.80
38464;DHT22;24243;51.956;5.902;2023-05-10T11:21:49;23.40;52.80
38464;DHT22;24243;51.956;5.902;2023-05-10T11:24:17;23.40;52.80
38464;DHT22;24243;51.956;5.902;2023-05-10T11:26:43;23.40;52.80
38464;DHT22;24243;51.956;5.902;2023-05-10T11:29:09;23.40;52.80
38464;DHT22;24243;51.956;5.902;2023-05-10T11:31:35;23.40;52.80
38464;DHT22;24243;51.956;5.902;2023-05-10T11:34:07;23.50;52.80
38464;DHT22;24243;51.956;5.902;2023-05-10T11:36:34;23.50;52.90
38464;DHT22;24243;51.956;5.902;2023-05-10T11:39:01;23.50;52.90
38464;DHT22;24243;51.956;5.902;2023-05-10T11:41:29;23.50;52.90
38464;DHT22;24243;51.956;5.902;2023-05-10T11:43:56;23.60;52.90
38464;DHT22;24243;51.956;5.902;2023-05-10T11:46:26;23.50;52.90
38464;DHT22;24243;51.956;5.902;2023-05-10T11:48:58;23.60;52.90
38464;DHT22;24243;51.956;5.902;2023-05-10T11:51:27;23.60;52.90
38464;DHT22;24243;51.956;5.902;2023-05-10T11:53:54;23.60;52.90
38464;DHT22;24243;51.956;5.902;2023-05-10T11:56:20;23.60;52.90
38464;DHT22;24243;51.956;5.902;2023-05-10T11:58:57;23.60;52.90
38464;DHT22;24243;51.956;5.902;2023-05-10T12:01:25;23.60;52.90
38464;DHT22;24243;51.956;5.902;2023-05-10T12:03:53;23.70;52.90
38464;DHT22;24243;51.956;5.902;2023-05-10T12:06:20;23.70;52.90
38464;DHT22;24243;51.956;5.902;2023-05-10T12:08:47;23.70;52.90
38464;DHT22;24243;51.956;5.902;2023-05-10T12:11:13;23.70;52.90
38464;DHT22;24243;51.956;5.902;2023-05-10T12:13:43;23.70;52.90
38464;DHT22;24243;51.956;5.902;2023-05-10T12:16:25;23.70;52.90
38464;DHT22;24243;51.956;5.902;2023-05-10T12:18:57;23.80;52.80
38464;DHT22;24243;51.956;5.902;2023-05-10T12:21:24;23.80;52.80
38464;DHT22;24243;51.956;5.902;2023-05-10T12:23:51;23.80;52.80
38464;DHT22;24243;51.956;5.902;2023-05-10T12:26:17;23.80;52.80
38464;DHT22;24243;51.956;5.902;2023-05-10T12:28:43;23.80;52.80
38464;DHT22;24243;51.956;5.902;2023-05-10T12:31:09;23.80;52.80
38464;DHT22;24243;51.956;5.902;2023-05-10T12:33:41;23.90;52.80
38464;DHT22;24243;51.956;5.902;2023-05-10T12:36:09;23.90;52.80
38464;DHT22;24243;51.956;5.902;2023-05-10T12:38:40;23.90;52.70
38464;DHT22;24243;51.956;5.902;2023-05-10T12:41:13;23.90;52.70
38464;DHT22;24243;51.956;5.902;2023-05-10T12:43:39;23.90;52.70
38464;DHT22;24243;51.956;5.902;2023-05-10T12:46:13;23.90;52.70
38464;DHT22;24243;51.956;5.902;2023-05-10T12:48:40;23.90;52.70
38464;DHT22;24243;51.956;5.902;2023-05-10T12:51:08;23.90;52.70
38464;DHT22;24243;51.956;5.902;2023-05-10T12:53:35;23.90;52.70
38464;DHT22;24243;51.956;5.902;2023-05-10T12:56:01;24.00;52.70
38464;DHT22;24243;51.956;5.902;2023-05-10T12:58:27;24.00;52.70
38464;DHT22;24243;51.956;5.902;2023-05-10T13:00:53;24.00;52.70
38464;DHT22;24243;51.956;5.902;2023-05-10T13:03:19;24.00;52.70
38464;DHT22;24243;51.956;5.902;2023-05-10T13:05:44;24.00;52.70
38464;DHT22;24243;51.956;5.902;2023-05-10T13:08:10;24.00;52.70
38464;DHT22;24243;51.956;5.902;2023-05-10T13:10:36;24.00;52.70
38464;DHT22;24243;51.956;5.902;2023-05-10T13:13:02;24.00;52.70
38464;DHT22;24243;51.956;5.902;2023-05-10T13:15:28;24.00;52.80
38464;DHT22;24243;51.956;5.902;2023-05-10T13:17:54;24.00;52.80
38464;DHT22;24243;51.956;5.902;2023-05-10T13:20:20;24.00;52.90
38464;DHT22;24243;51.956;5.902;2023-05-10T13:22:46;24.00;52.90
38464;DHT22;24243;51.956;5.902;2023-05-10T13:25:12;24.00;53.00
38464;DHT22;24243;51.956;5.902;2023-05-10T13:27:39;24.00;53.00
38464;DHT22;24243;51.956;5.902;2023-05-10T13:30:06;24.00;53.00
38464;DHT22;24243;51.956;5.902;2023-05-10T13:32:32;24.00;53.10
38464;DHT22;24243;51.956;5.902;2023-05-10T13:34:58;24.00;53.70
38464;DHT22;24243;51.956;5.902;2023-05-10T13:37:24;24.00;53.10
38464;DHT22;24243;51.956;5.902;2023-05-10T13:39:50;24.00;53.10
38464;DHT22;24243;51.956;5.902;2023-05-10T13:42:15;23.90;53.10
38464;DHT22;24243;51.956;5.902;2023-05-10T13:44:41;23.90;53.10
38464;DHT22;24243;51.956;5.902;2023-05-10T13:47:07;23.90;53.10
38464;DHT22;24243;51.956;5.902;2023-05-10T13:49:33;23.90;53.20
38464;DHT22;24243;51.956;5.902;2023-05-10T13:51:59;23.90;53.30
38464;DHT22;24243;51.956;5.902;2023-05-10T13:54:34;23.90;53.40
38464;DHT22;24243;51.956;5.902;2023-05-10T13:57:01;23.90;53.40
38464;DHT22;24243;51.956;5.902;2023-05-10T13:59:26;23.90;53.40
38464;DHT22;24243;51.956;5.902;2023-05-10T14:01:52;23.90;53.50
38464;DHT22;24243;51.956;5.902;2023-05-10T14:04:18;23.80;53.50
38464;DHT22;24243;51.956;5.902;2023-05-10T14:06:44;23.90;53.50
38464;DHT22;24243;51.956;5.902;2023-05-10T14:09:09;23.80;53.50
38464;DHT22;24243;51.956;5.902;2023-05-10T14:11:35;23.80;53.50
38464;DHT22;24243;51.956;5.902;2023-05-10T14:14:01;23.90;53.70
38464;DHT22;24243;51.956;5.902;2023-05-10T14:16:27;23.90;53.70
38464;DHT22;24243;51.956;5.902;2023-05-10T14:18:53;23.80;53.60
38464;DHT22;24243;51.956;5.902;2023-05-10T14:21:19;23.80;53.70
38464;DHT22;24243;51.956;5.902;2023-05-10T14:23:45;23.90;53.70
38464;DHT22;24243;51.956;5.902;2023-05-10T14:26:11;23.90;53.80
38464;DHT22;24243;51.956;5.902;2023-05-10T14:28:36;23.90;53.80
38464;DHT22;24243;51.956;5.902;2023-05-10T14:31:02;23.90;53.90
38464;DHT22;24243;51.956;5.902;2023-05-10T14:33:28;23.80;53.90
38464;DHT22;24243;51.956;5.902;2023-05-10T14:35:54;23.80;54.50
38464;DHT22;24243;51.956;5.902;2023-05-10T14:38:22;23.80;53.90
38464;DHT22;24243;51.956;5.902;2023-05-10T14:40:47;23.80;54.00
38464;DHT22;24243;51.956;5.902;2023-05-10T14:43:13;23.80;54.00
38464;DHT22;24243;51.956;5.902;2023-05-10T14:45:39;23.80;54.10
38464;DHT22;24243;51.956;5.902;2023-05-10T14:48:05;23.80;54.10
38464;DHT22;24243;51.956;5.902;2023-05-10T14:50:31;23.80;54.10
38464;DHT22;24243;51.956;5.902;2023-05-10T14:52:58;23.80;54.10
38464;DHT22;24243;51.956;5.902;2023-05-10T14:55:24;23.80;54.10
38464;DHT22;24243;51.956;5.902;2023-05-10T14:57:50;23.80;54.10
38464;DHT22;24243;51.956;5.902;2023-05-10T15:00:16;23.80;54.10
38464;DHT22;24243;51.956;5.902;2023-05-10T15:02:42;23.80;54.10
38464;DHT22;24243;51.956;5.902;2023-05-10T15:05:08;23.80;54.10
38464;DHT22;24243;51.956;5.902;2023-05-10T15:07:34;23.80;54.10
38464;DHT22;24243;51.956;5.902;2023-05-10T15:09:59;23.80;54.10
38464;DHT22;24243;51.956;5.902;2023-05-10T15:12:25;23.80;54.10
38464;DHT22;24243;51.956;5.902;2023-05-10T15:14:51;23.80;54.10
38464;DHT22;24243;51.956;5.902;2023-05-10T15:17:17;23.80;54.10
38464;DHT22;24243;51.956;5.902;2023-05-10T15:19:43;23.80;54.10
38464;DHT22;24243;51.956;5.902;2023-05-10T15:22:08;23.80;54.10
38464;DHT22;24243;51.956;5.902;2023-05-10T15:24:34;23.80;54.10
38464;DHT22;24243;51.956;5.902;2023-05-10T15:27:00;23.80;54.20
38464;DHT22;24243;51.956;5.902;2023-05-10T15:29:26;23.80;54.10
38464;DHT22;24243;51.956;5.902;2023-05-10T15:31:52;23.80;54.20
38464;DHT22;24243;51.956;5.902;2023-05-10T15:34:18;23.80;54.10
38464;DHT22;24243;51.956;5.902;2023-05-10T15:36:44;23.80;54.20
38464;DHT22;24243;51.956;5.902;2023-05-10T15:39:10;23.80;54.20
38464;DHT22;24243;51.956;5.902;2023-05-10T15:41:37;23.80;54.20
38464;DHT22;24243;51.956;5.902;2023-05-10T15:44:03;23.80;54.30
38464;DHT22;24243;51.956;5.902;2023-05-10T15:46:30;23.80;54.20
38464;DHT22;24243;51.956;5.902;2023-05-10T15:48:57;23.70;54.20
38464;DHT22;24243;51.956;5.902;2023-05-10T15:51:22;23.80;54.30
38464;DHT22;24243;51.956;5.902;2023-05-10T15:53:48;23.70;54.30
38464;DHT22;24243;51.956;5.902;2023-05-10T15:56:14;23.70;54.30
38464;DHT22;24243;51.956;5.902;2023-05-10T15:58:40;23.70;54.30
38464;DHT22;24243;51.956;5.902;2023-05-10T16:01:06;23.70;54.30